createdAt,value
2018-09-26T00:01:10.312Z,91.38
2018-09-26T00:03:44.850Z,91.20
2018-09-26T00:06:13.240Z,91.41
2018-09-26T00:08:41.726Z,91.62
2018-09-26T00:11:10.161Z,91.11
2018-09-26T00:13:38.754Z,91.45
2018-09-26T00:16:07.614Z,91.31
2018-09-26T00:18:36.122Z,91.97
2018-09-26T00:21:04.574Z,90.46
2018-09-26T00:23:33.105Z,90.69
2018-09-26T00:26:01.630Z,90.52
2018-09-26T00:28:30.046Z,90.38
2018-09-26T00:30:58.507Z,91.42
2018-09-26T00:33:26.882Z,90.76
2018-09-26T00:35:55.390Z,90.51
2018-09-26T00:38:23.734Z,90.78
2018-09-26T00:40:52.207Z,90.61
2018-09-26T00:43:20.693Z,91.20
2018-09-26T00:45:49.004Z,91.04
2018-09-26T00:48:17.417Z,90.21
2018-09-26T00:50:45.829Z,91.20
2018-09-26T00:53:14.187Z,91.43
2018-09-26T00:55:42.679Z,92.49
2018-09-26T00:58:11.062Z,92.19
2018-09-26T01:00:39.843Z,91.82
2018-09-26T01:03:08.199Z,91.41
2018-09-26T01:05:36.622Z,90.76
2018-09-26T01:08:05.097Z,90.82
2018-09-26T01:10:33.482Z,91.13
2018-09-26T01:13:01.918Z,90.96
2018-09-26T01:15:30.341Z,91.25
2018-09-26T01:17:58.758Z,91.45
2018-09-26T01:20:27.209Z,90.43
2018-09-26T01:22:55.575Z,91.19
2018-09-26T01:25:25.025Z,91.09
2018-09-26T01:27:53.436Z,90.29
2018-09-26T01:30:21.939Z,90.80
2018-09-26T01:32:50.399Z,91.42
2018-09-26T01:35:18.714Z,91.88
2018-09-26T01:37:47.134Z,91.66
2018-09-26T01:40:15.690Z,92.01
2018-09-26T01:42:44.092Z,91.52
2018-09-26T01:45:12.594Z,91.51
2018-09-26T01:47:41.078Z,90.86
2018-09-26T01:50:09.689Z,91.49
2018-09-26T01:52:38.071Z,90.91
2018-09-26T01:55:06.582Z,90.46
2018-09-26T01:57:35.050Z,90.74
2018-09-26T02:00:03.500Z,90.42
2018-09-26T02:02:31.940Z,90.69
2018-09-26T02:05:03.407Z,90.64
2018-09-26T02:07:31.829Z,90.96
2018-09-26T02:10:00.222Z,91.39
2018-09-26T02:12:28.646Z,90.72
2018-09-26T02:14:56.970Z,90.66
2018-09-26T02:17:25.326Z,91.10
2018-09-26T02:19:53.682Z,91.67
2018-09-26T02:22:22.141Z,91.77
2018-09-26T02:24:50.551Z,91.54
2018-09-26T02:27:18.997Z,91.88
2018-09-26T02:29:47.342Z,91.98
2018-09-26T02:32:15.741Z,91.53
2018-09-26T02:34:44.317Z,91.86
2018-09-26T02:37:12.682Z,92.78
2018-09-26T02:39:41.146Z,92.63
2018-09-26T02:42:09.551Z,93.30
2018-09-26T02:44:37.938Z,92.44
2018-09-26T02:47:06.310Z,91.56
2018-09-26T02:49:34.793Z,91.37
2018-09-26T02:52:03.205Z,91.40
2018-09-26T02:54:31.574Z,91.48
2018-09-26T02:56:59.875Z,90.99
2018-09-26T02:59:28.208Z,91.50
2018-09-26T03:01:56.607Z,90.92
2018-09-26T03:04:25.070Z,91.39
2018-09-26T03:06:53.523Z,91.75
2018-09-26T03:09:21.932Z,91.04
2018-09-26T03:11:50.348Z,91.45
2018-09-26T03:14:20.773Z,91.14
2018-09-26T03:16:49.182Z,90.74
2018-09-26T03:19:17.545Z,90.92
2018-09-26T03:21:45.975Z,90.92
2018-09-26T03:24:14.336Z,90.73
2018-09-26T03:26:43.425Z,91.26
2018-09-26T03:29:11.913Z,91.70
2018-09-26T03:31:40.314Z,91.71
2018-09-26T03:34:08.597Z,90.82
2018-09-26T03:36:36.860Z,91.16
2018-09-26T03:39:06.977Z,92.14
2018-09-26T03:41:35.261Z,92.14
2018-09-26T03:44:03.613Z,92.17
2018-09-26T03:46:31.870Z,92.79
2018-09-26T03:49:00.133Z,92.81
2018-09-26T03:51:28.426Z,91.58
2018-09-26T03:53:56.777Z,91.81
2018-09-26T03:56:25.165Z,90.95
2018-09-26T03:58:53.452Z,91.02
2018-09-26T04:01:21.785Z,91.62
2018-09-26T04:03:50.101Z,90.83
2018-09-26T04:06:18.416Z,91.56
2018-09-26T04:08:46.648Z,91.93
2018-09-26T04:11:15.013Z,91.40
2018-09-26T04:13:44.016Z,92.32
2018-09-26T04:16:12.284Z,91.70
2018-09-26T04:18:40.580Z,92.58
2018-09-26T04:21:15.288Z,92.35
2018-09-26T04:23:43.641Z,92.66
2018-09-26T04:26:12.049Z,92.49
2018-09-26T04:28:40.241Z,92.73
2018-09-26T04:31:08.561Z,92.29
2018-09-26T04:33:36.910Z,91.87
2018-09-26T04:36:05.782Z,92.36
2018-09-26T04:38:34.108Z,92.32
2018-09-26T04:41:02.288Z,92.70
2018-09-26T04:43:30.552Z,92.50
2018-09-26T04:45:58.796Z,92.99
2018-09-26T04:48:27.238Z,92.36
2018-09-26T04:50:55.621Z,91.89
2018-09-26T04:53:23.949Z,92.73
2018-09-26T04:55:52.233Z,92.13
2018-09-26T04:58:20.586Z,91.97
2018-09-26T05:00:48.890Z,92.72
2018-09-26T05:03:17.219Z,92.26
2018-09-26T05:05:45.535Z,91.88
2018-09-26T05:08:13.926Z,92.35
2018-09-26T05:10:42.260Z,91.55
2018-09-26T05:13:10.554Z,92.32
2018-09-26T05:15:38.881Z,91.84
2018-09-26T05:18:07.224Z,90.95
2018-09-26T05:20:35.592Z,89.07
2018-09-26T05:23:03.891Z,88.18
2018-09-26T05:25:32.286Z,88.17
2018-09-26T05:28:00.771Z,87.32
2018-09-26T05:30:29.171Z,87.30
2018-09-26T05:32:57.424Z,88.35
2018-09-26T05:35:25.843Z,87.79
2018-09-26T05:37:54.138Z,88.96
2018-09-26T05:40:22.509Z,89.36
2018-09-26T05:42:50.886Z,89.46
2018-09-26T05:45:19.202Z,90.58
2018-09-26T05:47:48.138Z,90.38
2018-09-26T05:50:16.548Z,91.10
2018-09-26T05:52:45.081Z,90.92
2018-09-26T05:55:13.492Z,89.96
2018-09-26T05:57:41.970Z,90.88
2018-09-26T06:00:10.355Z,89.95
2018-09-26T06:02:38.627Z,91.44
2018-09-26T06:05:06.926Z,91.44
2018-09-26T06:07:35.274Z,91.29
2018-09-26T06:10:03.608Z,90.57
2018-09-26T06:12:31.901Z,90.24
2018-09-26T06:15:00.223Z,89.88
2018-09-26T06:17:28.602Z,90.43
2018-09-26T06:19:57.027Z,89.83
2018-09-26T06:22:25.358Z,89.67
2018-09-26T06:24:53.658Z,88.01
2018-09-26T06:27:22.034Z,88.43
2018-09-26T06:29:50.385Z,87.90
2018-09-26T06:32:18.703Z,87.56
2018-09-26T06:34:46.979Z,86.46
2018-09-26T06:37:15.330Z,86.43
2018-09-26T06:39:43.625Z,85.53
2018-09-26T06:42:11.964Z,86.57
2018-09-26T06:44:40.282Z,84.99
2018-09-26T06:47:08.642Z,84.64
2018-09-26T06:49:37.016Z,84.28
2018-09-26T06:52:05.430Z,84.11
2018-09-26T06:54:33.908Z,83.43
2018-09-26T06:57:02.215Z,82.18
2018-09-26T06:59:30.580Z,82.46
2018-09-26T07:01:58.890Z,82.19
2018-09-26T07:04:27.227Z,80.79
2018-09-26T07:06:55.509Z,80.06
2018-09-26T07:09:23.832Z,77.62
2018-09-26T07:11:52.115Z,76.98
2018-09-26T07:14:20.537Z,78.02
2018-09-26T07:16:48.814Z,76.53
2018-09-26T07:19:17.180Z,77.67
2018-09-26T07:21:45.540Z,75.83
2018-09-26T07:24:13.855Z,72.67
2018-09-26T07:26:42.162Z,72.48
2018-09-26T07:29:10.606Z,74.82
2018-09-26T07:31:38.953Z,71.91
2018-09-26T07:34:07.495Z,72.39
2018-09-26T07:36:35.767Z,67.30
2018-09-26T07:39:04.727Z,68.18
2018-09-26T07:41:33.071Z,70.07
2018-09-26T07:44:01.383Z,70.14
2018-09-26T07:46:29.675Z,66.96
2018-09-26T07:48:58.006Z,66.33
2018-09-26T07:51:26.342Z,65.78
2018-09-26T07:53:54.649Z,61.18
2018-09-26T07:56:22.926Z,61.67
2018-09-26T07:58:51.250Z,63.30
2018-09-26T08:01:19.555Z,63.39
2018-09-26T08:03:47.914Z,59.53
2018-09-26T08:06:16.374Z,60.57
2018-09-26T08:08:44.724Z,60.17
2018-09-26T08:11:13.184Z,62.54
2018-09-26T08:13:41.487Z,60.55
2018-09-26T08:16:09.831Z,61.37
2018-09-26T08:18:38.249Z,59.15
2018-09-26T08:21:06.765Z,59.16
2018-09-26T08:23:35.067Z,60.68
2018-09-26T08:26:03.391Z,60.88
2018-09-26T08:28:31.682Z,61.75
2018-09-26T08:30:59.970Z,60.38
2018-09-26T08:33:28.302Z,60.17
2018-09-26T08:35:56.639Z,58.83
2018-09-26T08:38:24.982Z,58.66
2018-09-26T08:40:53.487Z,61.78
2018-09-26T08:43:21.832Z,58.66
2018-09-26T08:45:50.128Z,59.83
2018-09-26T08:48:18.447Z,59.83
2018-09-26T08:50:46.747Z,59.06
2018-09-26T08:53:15.094Z,58.27
2018-09-26T08:55:43.395Z,56.05
2018-09-26T08:58:11.767Z,59.72
2018-09-26T09:00:40.140Z,58.68
2018-09-26T09:03:08.698Z,56.17
2018-09-26T09:05:37.367Z,54.64
2018-09-26T09:08:05.687Z,56.44
2018-09-26T09:10:33.992Z,56.20
2018-09-26T09:13:02.321Z,55.28
2018-09-26T09:15:30.657Z,57.06
2018-09-26T09:17:58.998Z,53.82
2018-09-26T09:20:27.267Z,53.55
2018-09-26T09:22:55.572Z,53.71
2018-09-26T09:25:23.848Z,54.29
2018-09-26T09:27:52.282Z,54.11
2018-09-26T09:30:20.709Z,53.03
2018-09-26T09:32:49.815Z,55.56
2018-09-26T09:35:18.432Z,54.75
2018-09-26T09:37:46.714Z,54.86
2018-09-26T09:40:15.005Z,54.39
2018-09-26T09:42:43.543Z,53.55
2018-09-26T09:45:11.839Z,51.27
2018-09-26T09:47:40.110Z,55.03
2018-09-26T09:50:08.601Z,54.02
2018-09-26T09:52:37.775Z,53.20
2018-09-26T09:55:06.087Z,54.16
2018-09-26T09:57:34.374Z,54.26
2018-09-26T10:00:02.755Z,54.23
2018-09-26T10:02:31.051Z,51.98
2018-09-26T10:04:59.687Z,52.54
2018-09-26T10:07:28.016Z,52.69
2018-09-26T10:09:56.344Z,53.32
2018-09-26T10:12:24.712Z,51.64
2018-09-26T10:14:53.244Z,49.90
2018-09-26T10:17:21.589Z,52.08
2018-09-26T10:19:49.898Z,51.07
2018-09-26T10:22:18.178Z,50.86
2018-09-26T10:24:46.612Z,51.87
2018-09-26T10:27:15.094Z,51.29
2018-09-26T10:29:43.896Z,54.16
2018-09-26T10:32:13.434Z,48.49
2018-09-26T10:34:41.895Z,47.19
2018-09-26T10:37:10.327Z,51.67
2018-09-26T10:39:41.057Z,48.19
2018-09-26T10:42:09.457Z,49.41
2018-09-26T10:44:37.820Z,50.63
2018-09-26T10:47:06.129Z,50.03
2018-09-26T10:49:34.649Z,48.69
2018-09-26T10:52:03.050Z,46.70
2018-09-26T10:54:31.726Z,47.64
2018-09-26T10:57:00.550Z,48.48
2018-09-26T10:59:29.590Z,45.81
2018-09-26T11:01:57.907Z,49.16
2018-09-26T11:04:26.457Z,48.04
2018-09-26T11:06:55.133Z,48.31
2018-09-26T11:09:23.642Z,49.99
2018-09-26T11:11:52.284Z,48.28
2018-09-26T11:14:21.306Z,49.86
2018-09-26T11:16:49.725Z,48.66
2018-09-26T11:19:18.098Z,46.98
2018-09-26T11:21:46.478Z,45.11
2018-09-26T11:24:14.781Z,46.97
2018-09-26T11:26:43.217Z,44.27
2018-09-26T11:29:11.555Z,42.79
2018-09-26T11:31:39.898Z,45.33
2018-09-26T11:34:09.786Z,46.79
2018-09-26T11:36:38.397Z,44.92
2018-09-26T11:39:09.155Z,46.86
2018-09-26T11:41:37.898Z,46.44
2018-09-26T11:44:06.587Z,45.42
2018-09-26T11:46:35.242Z,46.04
2018-09-26T11:49:04.655Z,45.11
2018-09-26T11:51:33.221Z,42.40
2018-09-26T11:54:01.808Z,43.85
2018-09-26T11:56:31.134Z,44.96
2018-09-26T11:58:59.688Z,42.64
2018-09-26T12:01:28.172Z,42.81
2018-09-26T12:03:56.864Z,44.63
2018-09-26T12:06:25.381Z,43.89
2018-09-26T12:08:53.677Z,43.99
2018-09-26T12:11:22.003Z,45.33
2018-09-26T12:13:50.417Z,44.82
2018-09-26T12:16:18.892Z,45.04
2018-09-26T12:18:47.560Z,43.88
2018-09-26T12:21:16.014Z,43.33
2018-09-26T12:23:44.655Z,44.43
2018-09-26T12:26:13.353Z,42.06
2018-09-26T12:28:41.874Z,41.45
2018-09-26T12:31:10.345Z,43.03
2018-09-26T12:33:38.791Z,40.91
2018-09-26T12:36:07.291Z,44.45
2018-09-26T12:38:35.588Z,43.52
2018-09-26T12:41:03.923Z,44.36
2018-09-26T12:43:32.260Z,42.25
2018-09-26T12:46:00.666Z,43.34
2018-09-26T12:48:29.063Z,43.58
2018-09-26T12:50:57.291Z,44.78
2018-09-26T12:53:25.654Z,46.24
2018-09-26T12:55:53.992Z,43.81
2018-09-26T12:58:22.345Z,44.94
2018-09-26T13:00:50.692Z,44.50
2018-09-26T13:03:18.992Z,41.74
2018-09-26T13:05:47.290Z,43.27
2018-09-26T13:08:15.662Z,43.83
2018-09-26T13:10:44.114Z,41.88
2018-09-26T13:13:12.395Z,43.18
2018-09-26T13:15:40.719Z,41.64
2018-09-26T13:18:09.051Z,42.48
2018-09-26T13:20:37.338Z,43.94
2018-09-26T13:23:05.885Z,44.51
2018-09-26T13:25:34.318Z,42.63
2018-09-26T13:28:02.514Z,43.15
2018-09-26T13:30:30.862Z,44.31
2018-09-26T13:32:59.134Z,45.07
2018-09-26T13:35:27.478Z,41.82
2018-09-26T13:37:55.813Z,42.41
2018-09-26T13:40:24.189Z,41.04
2018-09-26T13:42:52.441Z,43.86
2018-09-26T13:45:20.749Z,40.76
2018-09-26T13:47:49.796Z,43.92
2018-09-26T13:50:18.125Z,44.67
2018-09-26T13:52:46.452Z,44.31
2018-09-26T13:55:14.768Z,44.40
2018-09-26T13:57:43.362Z,45.56
2018-09-26T14:00:14.952Z,42.82
2018-09-26T14:02:43.492Z,43.37
2018-09-26T14:05:11.847Z,43.84
2018-09-26T14:07:40.439Z,45.83
2018-09-26T14:10:09.255Z,44.90
2018-09-26T14:12:37.576Z,41.69
2018-09-26T14:15:05.919Z,43.28
2018-09-26T14:17:34.516Z,45.54
2018-09-26T14:20:19.741Z,40.94
2018-09-26T14:22:48.359Z,41.75
2018-09-26T14:25:16.977Z,43.09
2018-09-26T14:27:45.623Z,41.29
2018-09-26T14:30:14.209Z,42.82
2018-09-26T14:32:42.733Z,43.05
2018-09-26T14:35:11.475Z,41.73
2018-09-26T14:37:40.371Z,40.79
2018-09-26T14:40:09.787Z,42.09
2018-09-26T14:42:38.745Z,42.06
2018-09-26T14:45:07.334Z,43.14
2018-09-26T14:47:35.876Z,42.49
2018-09-26T14:50:04.753Z,39.72
2018-09-26T14:52:33.442Z,42.75
2018-09-26T14:55:01.938Z,42.63
2018-09-26T14:57:30.490Z,40.80
2018-09-26T14:59:58.986Z,41.93
2018-09-26T15:02:27.641Z,43.75
2018-09-26T15:04:56.150Z,42.14
2018-09-26T15:07:24.699Z,41.83
2018-09-26T15:09:53.247Z,41.33
2018-09-26T15:12:21.861Z,42.21
2018-09-26T15:14:50.495Z,40.88
2018-09-26T15:17:18.991Z,41.31
2018-09-26T15:19:47.686Z,41.72
2018-09-26T15:22:16.397Z,42.88
2018-09-26T15:24:44.970Z,44.15
2018-09-26T15:27:13.546Z,44.73
2018-09-26T15:29:42.002Z,43.97
2018-09-26T15:32:10.525Z,44.13
2018-09-26T15:34:39.045Z,44.18
2018-09-26T15:37:07.595Z,45.44
2018-09-26T15:39:38.595Z,43.14
2018-09-26T15:42:07.410Z,44.11
2018-09-26T15:44:37.298Z,42.87
2018-09-26T15:47:05.913Z,43.47
2018-09-26T15:49:34.341Z,44.19
2018-09-26T15:52:02.885Z,44.51
2018-09-26T15:54:31.313Z,43.69
2018-09-26T15:56:59.779Z,42.87
2018-09-26T15:59:28.324Z,44.15
2018-09-26T16:01:56.825Z,43.70
2018-09-26T16:04:26.828Z,44.34
2018-09-26T16:06:55.123Z,46.10
2018-09-26T16:09:23.578Z,45.45
2018-09-26T16:11:52.947Z,46.49
2018-09-26T16:14:22.652Z,47.29
2018-09-26T16:16:50.965Z,46.91
2018-09-26T16:19:19.399Z,47.64
2018-09-26T16:21:48.505Z,47.77
2018-09-26T16:24:16.912Z,49.41
2018-09-26T16:26:45.559Z,50.68
2018-09-26T16:29:14.038Z,50.19
2018-09-26T16:31:42.394Z,50.81
2018-09-26T16:34:10.696Z,51.31
2018-09-26T16:36:38.976Z,50.48
2018-09-26T16:39:11.546Z,50.53
2018-09-26T16:41:42.014Z,50.31
2018-09-26T16:44:10.489Z,50.15
2018-09-26T16:46:38.958Z,47.60
2018-09-26T16:49:07.284Z,48.45
2018-09-26T16:51:35.633Z,49.11
2018-09-26T16:54:04.055Z,50.02
2018-09-26T16:56:32.449Z,51.40
2018-09-26T16:59:00.717Z,50.29
2018-09-26T17:01:29.018Z,51.06
2018-09-26T17:03:57.335Z,51.12
2018-09-26T17:06:25.669Z,56.64
2018-09-26T17:08:54.380Z,56.95
2018-09-26T17:11:22.797Z,57.66
2018-09-26T17:13:51.077Z,58.64
2018-09-26T17:16:20.481Z,57.97
2018-09-26T17:18:48.914Z,60.16
2018-09-26T17:21:17.284Z,59.10
2018-09-26T17:23:45.596Z,61.01
2018-09-26T17:26:14.977Z,61.70
2018-09-26T17:28:43.347Z,62.13
2018-09-26T17:31:11.723Z,61.52
2018-09-26T17:33:41.329Z,63.29
2018-09-26T17:36:09.595Z,64.29
2018-09-26T17:38:37.936Z,63.52
2018-09-26T17:41:06.269Z,64.34
2018-09-26T17:43:36.625Z,64.94
2018-09-26T17:46:04.967Z,65.00
2018-09-26T17:48:33.501Z,59.62
2018-09-26T17:51:01.796Z,57.42
2018-09-26T17:53:31.297Z,55.52
2018-09-26T17:55:59.680Z,56.22
2018-09-26T17:58:28.011Z,54.56
2018-09-26T18:00:58.338Z,51.21
2018-09-26T18:03:26.682Z,49.75
2018-09-26T18:05:55.172Z,49.81
2018-09-26T18:08:23.456Z,50.02
2018-09-26T18:10:52.568Z,51.63
2018-09-26T18:13:20.934Z,50.81
2018-09-26T18:15:49.183Z,50.80
2018-09-26T18:18:24.083Z,50.41
2018-09-26T18:20:53.423Z,49.71
2018-09-26T18:23:21.806Z,49.16
2018-09-26T18:25:50.180Z,50.72
2018-09-26T18:28:19.533Z,50.34
2018-09-26T18:30:47.813Z,50.23
2018-09-26T18:33:16.247Z,48.59
2018-09-26T18:35:44.666Z,48.80
2018-09-26T18:38:13.245Z,48.83
2018-09-26T18:40:41.537Z,49.67
2018-09-26T18:43:09.836Z,49.62
2018-09-26T18:45:39.158Z,48.87
2018-09-26T18:48:07.489Z,49.03
2018-09-26T18:50:36.950Z,49.07
2018-09-26T18:53:06.035Z,50.26
2018-09-26T18:55:34.595Z,49.48
2018-09-26T18:58:03.489Z,50.59
2018-09-26T19:00:32.186Z,50.93
2018-09-26T19:03:00.927Z,51.47
2018-09-26T19:05:29.361Z,52.17
2018-09-26T19:07:57.722Z,49.99
2018-09-26T19:10:26.917Z,49.79
2018-09-26T19:12:55.417Z,49.92
2018-09-26T19:15:23.645Z,52.68
2018-09-26T19:17:52.052Z,49.11
2018-09-26T19:20:20.768Z,50.80
2018-09-26T19:22:50.271Z,51.52
2018-09-26T19:25:18.622Z,51.33
2018-09-26T19:27:46.891Z,51.45
2018-09-26T19:30:15.353Z,53.10
2018-09-26T19:32:43.737Z,51.77
2018-09-26T19:35:12.041Z,53.22
2018-09-26T19:37:40.412Z,52.25
2018-09-26T19:40:09.199Z,51.84
2018-09-26T19:42:38.892Z,52.21
2018-09-26T19:45:07.971Z,52.59
2018-09-26T19:48:40.313Z,52.79
2018-09-26T19:51:08.606Z,51.70
2018-09-26T19:53:36.876Z,51.16
2018-09-26T19:56:06.712Z,50.99
2018-09-26T19:58:35.013Z,51.50
2018-09-26T20:01:03.297Z,51.18
2018-09-26T20:03:32.311Z,52.77
2018-09-26T20:06:00.542Z,53.14
2018-09-26T20:08:28.819Z,52.14
2018-09-26T20:10:58.213Z,50.73
2018-09-26T20:13:26.632Z,50.62
2018-09-26T20:15:54.953Z,51.66
2018-09-26T20:18:23.272Z,50.54
2018-09-26T20:20:51.581Z,50.62
2018-09-26T20:23:19.956Z,50.10
2018-09-26T20:25:48.132Z,49.73
2018-09-26T20:28:16.515Z,49.41
2018-09-26T20:30:44.810Z,49.82
2018-09-26T20:33:13.514Z,49.47
2018-09-26T20:35:41.831Z,50.18
2018-09-26T20:38:10.106Z,50.15
2018-09-26T20:40:38.382Z,51.14
2018-09-26T20:43:06.646Z,50.04
2018-09-26T20:45:34.984Z,50.70
2018-09-26T20:48:03.278Z,51.24
2018-09-26T20:50:32.861Z,51.36
2018-09-26T20:53:01.717Z,51.40
2018-09-26T20:55:30.320Z,49.94
2018-09-26T20:57:58.649Z,50.42
2018-09-26T21:00:27.383Z,52.38
2018-09-26T21:02:56.050Z,52.82
2018-09-26T21:05:24.420Z,52.78
2018-09-26T21:07:52.718Z,56.25
2018-09-26T21:10:21.117Z,56.08
2018-09-26T21:12:49.434Z,54.87
2018-09-26T21:15:17.694Z,53.00
2018-09-26T21:17:45.998Z,51.58
2018-09-26T21:20:14.331Z,51.81
2018-09-26T21:22:42.708Z,52.11
2018-09-26T21:25:10.992Z,51.63
2018-09-26T21:27:39.241Z,52.38
2018-09-26T21:30:07.569Z,52.19
2018-09-26T21:32:35.810Z,52.24
2018-09-26T21:35:06.201Z,52.04
2018-09-26T21:37:34.527Z,52.19
2018-09-26T21:40:02.823Z,52.00
2018-09-26T21:42:31.209Z,52.74
2018-09-26T21:44:59.489Z,52.58
2018-09-26T21:47:27.733Z,52.15
2018-09-26T21:49:56.705Z,53.04
2018-09-26T21:52:24.956Z,52.59
2018-09-26T21:54:53.265Z,54.56
2018-09-26T21:57:21.536Z,52.39
2018-09-26T21:59:49.885Z,52.63
2018-09-26T22:02:18.187Z,52.59
2018-09-26T22:04:46.495Z,51.57
2018-09-26T22:07:14.857Z,52.64
2018-09-26T22:09:43.196Z,52.14
2018-09-26T22:12:11.538Z,52.49
2018-09-26T22:14:39.836Z,53.67
2018-09-26T22:17:08.198Z,57.51
2018-09-26T22:19:36.503Z,59.62
2018-09-26T22:22:04.832Z,59.42
2018-09-26T22:24:33.187Z,62.02
2018-09-26T22:27:01.543Z,63.90
2018-09-26T22:29:29.847Z,64.26
2018-09-26T22:31:58.164Z,65.28
2018-09-26T22:34:26.446Z,66.54
2018-09-26T22:36:54.762Z,67.07
2018-09-26T22:39:23.195Z,68.51
2018-09-26T22:41:51.525Z,67.96
2018-09-26T22:44:19.842Z,68.44
2018-09-26T22:46:48.162Z,67.62
2018-09-26T22:49:16.476Z,67.57
2018-09-26T22:51:44.794Z,66.78
2018-09-26T22:54:13.138Z,61.44
2018-09-26T22:56:41.994Z,56.58
2018-09-26T22:59:10.286Z,54.82
2018-09-26T23:01:38.581Z,54.01
2018-09-26T23:04:06.900Z,55.31
2018-09-26T23:06:35.239Z,55.91
2018-09-26T23:09:03.581Z,55.26
2018-09-26T23:11:31.919Z,53.34
2018-09-26T23:14:00.212Z,54.72
2018-09-26T23:16:28.535Z,53.58
2018-09-26T23:18:56.861Z,53.51
2018-09-26T23:21:25.180Z,54.53
2018-09-26T23:23:53.510Z,55.61
2018-09-26T23:26:21.831Z,54.13
2018-09-26T23:28:50.162Z,54.49
2018-09-26T23:31:18.470Z,55.94
2018-09-26T23:33:46.756Z,57.64
2018-09-26T23:36:15.082Z,57.08
2018-09-26T23:38:43.368Z,57.95
2018-09-26T23:41:11.707Z,54.89
2018-09-26T23:43:39.991Z,55.18
2018-09-26T23:46:08.337Z,55.67
2018-09-26T23:48:36.699Z,54.74
2018-09-26T23:51:05.003Z,54.81
2018-09-26T23:53:33.335Z,55.44
2018-09-26T23:56:01.621Z,55.10
2018-09-26T23:58:29.926Z,55.04
